createdAt,value
2019-06-26T00:00:36.458Z,1.77
2019-06-26T00:03:08.017Z,1.77
2019-06-26T00:05:38.237Z,2.00
2019-06-26T00:08:08.424Z,1.47
2019-06-26T00:10:38.932Z,2.22
2019-06-26T00:13:22.085Z,2.12
2019-06-26T00:15:41.658Z,1.67
2019-06-26T00:18:12.430Z,2.25
2019-06-26T00:20:43.659Z,1.65
2019-06-26T00:23:13.913Z,1.75
2019-06-26T00:25:45.274Z,1.67
2019-06-26T00:28:15.504Z,1.98
2019-06-26T00:30:45.746Z,1.65
2019-06-26T00:33:17.589Z,1.35
2019-06-26T00:35:50.818Z,1.30
2019-06-26T00:38:22.119Z,2.02
2019-06-26T00:40:52.350Z,1.30
2019-06-26T00:43:22.573Z,1.30
2019-06-26T00:45:52.794Z,1.77
2019-06-26T00:48:22.981Z,1.22
2019-06-26T00:50:53.214Z,1.67
2019-06-26T00:53:23.455Z,1.92
2019-06-26T00:55:55.293Z,1.87
2019-06-26T00:58:25.582Z,1.47
2019-06-26T01:00:57.221Z,1.40
2019-06-26T01:03:27.585Z,1.35
2019-06-26T01:05:57.859Z,0.90
2019-06-26T01:08:28.060Z,1.20
2019-06-26T01:10:58.587Z,1.60
2019-06-26T01:13:28.846Z,1.27
2019-06-26T01:15:59.081Z,0.95
2019-06-26T01:18:29.328Z,1.10
2019-06-26T01:20:59.680Z,1.47
2019-06-26T01:23:30.288Z,0.88
2019-06-26T01:26:00.666Z,0.98
2019-06-26T01:28:31.477Z,0.93
2019-06-26T01:31:01.710Z,0.85
2019-06-26T01:33:31.885Z,0.80
2019-06-26T01:36:02.136Z,0.80
2019-06-26T01:38:32.342Z,1.07
2019-06-26T01:41:02.667Z,0.70
2019-06-26T01:43:32.893Z,1.40
2019-06-26T01:46:03.237Z,0.53
2019-06-26T01:48:36.305Z,0.80
2019-06-26T01:51:06.665Z,1.77
2019-06-26T01:53:37.103Z,0.78
2019-06-26T01:56:07.341Z,0.40
2019-06-26T01:58:37.530Z,0.80
2019-06-26T02:01:07.771Z,1.05
2019-06-26T02:03:41.077Z,0.62
2019-06-26T02:06:11.327Z,1.17
2019-06-26T02:08:41.625Z,1.32
2019-06-26T02:11:11.924Z,0.82
2019-06-26T02:13:42.105Z,0.90
2019-06-26T02:16:12.335Z,1.30
2019-06-26T02:18:47.055Z,0.90
2019-06-26T02:21:17.304Z,1.17
2019-06-26T02:23:47.814Z,0.75
2019-06-26T02:26:18.060Z,1.05
2019-06-26T02:28:48.260Z,0.90
2019-06-26T02:31:19.362Z,1.15
2019-06-26T02:33:49.982Z,1.27
2019-06-26T02:36:21.805Z,0.98
2019-06-26T02:38:53.110Z,0.80
2019-06-26T02:41:23.445Z,1.30
2019-06-26T02:44:04.321Z,1.27
2019-06-26T02:46:39.397Z,1.12
2019-06-26T02:49:10.441Z,1.02
2019-06-26T02:51:40.685Z,1.07
2019-06-26T02:54:11.361Z,1.40
2019-06-26T02:56:45.022Z,1.02
2019-06-26T02:59:17.077Z,1.05
2019-06-26T03:01:47.290Z,1.47
2019-06-26T03:04:17.564Z,0.70
2019-06-26T03:06:49.776Z,1.47
2019-06-26T03:09:22.860Z,1.07
2019-06-26T03:11:54.810Z,1.40
2019-06-26T03:14:27.918Z,1.60
2019-06-26T03:16:58.098Z,0.95
2019-06-26T03:19:31.216Z,1.98
2019-06-26T03:22:03.070Z,1.90
2019-06-26T03:24:36.512Z,1.70
2019-06-26T03:27:09.761Z,1.52
2019-06-26T03:29:41.555Z,1.82
2019-06-26T03:32:11.725Z,2.08
2019-06-26T03:34:43.791Z,1.47
2019-06-26T03:37:18.763Z,1.50
2019-06-26T03:39:48.990Z,1.92
2019-06-26T03:42:19.202Z,2.00
2019-06-26T03:44:49.373Z,2.00
2019-06-26T03:47:19.586Z,1.75
2019-06-26T03:49:51.324Z,1.90
2019-06-26T03:52:23.576Z,2.30
2019-06-26T03:54:59.114Z,1.30
2019-06-26T03:57:35.253Z,2.05
2019-06-26T04:00:04.228Z,2.00
2019-06-26T04:02:34.570Z,2.62
2019-06-26T04:05:05.178Z,2.47
2019-06-26T04:07:35.325Z,1.67
2019-06-26T04:10:07.728Z,2.22
2019-06-26T04:12:37.857Z,2.08
2019-06-26T04:15:08.287Z,2.00
2019-06-26T04:17:40.025Z,1.87
2019-06-26T04:20:12.918Z,1.90
2019-06-26T04:22:43.317Z,2.37
2019-06-26T04:25:19.477Z,1.95
2019-06-26T04:28:06.341Z,2.40
2019-06-26T04:30:36.363Z,1.62
2019-06-26T04:33:06.557Z,1.50
2019-06-26T04:35:39.319Z,2.02
2019-06-26T04:38:09.801Z,2.10
2019-06-26T04:40:42.893Z,2.55
2019-06-26T04:43:13.117Z,1.57
2019-06-26T04:45:57.585Z,2.00
2019-06-26T04:48:17.579Z,2.33
2019-06-26T04:50:47.783Z,1.32
2019-06-26T04:53:20.282Z,1.77
2019-06-26T04:55:53.130Z,1.77
2019-06-26T04:58:23.543Z,1.50
2019-06-26T05:00:53.724Z,1.47
2019-06-26T05:03:23.921Z,1.37
2019-06-26T05:05:54.098Z,2.67
2019-06-26T05:08:24.375Z,1.32
2019-06-26T05:10:55.684Z,1.70
2019-06-26T05:13:25.840Z,1.47
2019-06-26T05:15:56.061Z,2.17
2019-06-26T05:18:26.236Z,1.70
2019-06-26T05:20:59.376Z,1.40
2019-06-26T05:23:29.507Z,1.62
2019-06-26T05:25:59.579Z,1.85
2019-06-26T05:28:29.796Z,1.22
2019-06-26T05:30:59.994Z,1.67
2019-06-26T05:33:30.098Z,1.92
2019-06-26T05:36:00.249Z,2.77
2019-06-26T05:38:30.362Z,3.02
2019-06-26T05:41:00.507Z,1.75
2019-06-26T05:43:30.820Z,1.50
2019-06-26T05:46:01.069Z,1.95
2019-06-26T05:48:31.141Z,1.55
2019-06-26T05:51:01.449Z,1.67
2019-06-26T05:53:31.555Z,1.22
2019-06-26T05:56:01.664Z,1.27
2019-06-26T05:58:32.797Z,2.02
2019-06-26T06:01:05.017Z,1.62
2019-06-26T06:03:35.366Z,2.27
2019-06-26T06:06:05.676Z,1.85
2019-06-26T06:08:36.019Z,2.37
2019-06-26T06:11:06.198Z,1.25
2019-06-26T06:13:37.444Z,2.12
2019-06-26T06:16:07.593Z,1.87
2019-06-26T06:18:37.765Z,1.77
2019-06-26T06:21:07.854Z,1.65
2019-06-26T06:23:38.008Z,2.02
2019-06-26T06:26:08.075Z,1.72
2019-06-26T06:28:38.227Z,1.82
2019-06-26T06:31:10.944Z,1.52
2019-06-26T06:33:41.167Z,2.27
2019-06-26T06:36:11.245Z,2.60
2019-06-26T06:38:41.463Z,2.83
2019-06-26T06:41:11.545Z,1.95
2019-06-26T06:43:41.662Z,2.75
2019-06-26T06:46:11.883Z,2.60
2019-06-26T06:48:45.530Z,2.55
2019-06-26T06:51:16.803Z,2.50
2019-06-26T06:53:46.921Z,2.65
2019-06-26T06:56:17.393Z,3.77
2019-06-26T06:58:47.502Z,2.47
2019-06-26T07:01:18.024Z,7.17
2019-06-26T07:03:48.111Z,3.20
2019-06-26T07:06:19.749Z,3.27
2019-06-26T07:08:50.959Z,2.70
2019-06-26T07:11:21.217Z,1.85
2019-06-26T07:13:51.603Z,1.50
2019-06-26T07:16:21.716Z,2.35
2019-06-26T07:18:56.815Z,1.82
2019-06-26T07:21:26.902Z,1.42
2019-06-26T07:23:57.025Z,1.72
2019-06-26T07:26:27.129Z,1.52
2019-06-26T07:28:57.266Z,2.55
2019-06-26T07:31:27.372Z,2.02
2019-06-26T07:33:57.496Z,1.70
2019-06-26T07:36:27.624Z,2.22
2019-06-26T07:39:00.679Z,2.90
2019-06-26T07:41:32.439Z,2.00
2019-06-26T07:44:02.553Z,1.80
2019-06-26T07:46:32.609Z,2.65
2019-06-26T07:49:02.721Z,1.92
2019-06-26T07:51:32.776Z,1.90
2019-06-26T07:54:02.878Z,2.40
2019-06-26T07:56:35.092Z,1.95
2019-06-26T07:59:08.179Z,4.17
2019-06-26T08:01:38.256Z,6.10
2019-06-26T08:04:08.470Z,3.87
2019-06-26T08:06:40.047Z,5.25
2019-06-26T08:09:10.197Z,3.50
2019-06-26T08:11:40.346Z,2.62
2019-06-26T08:14:10.538Z,4.33
2019-06-26T08:16:40.839Z,2.77
2019-06-26T08:19:11.067Z,4.00
2019-06-26T08:21:41.188Z,3.25
2019-06-26T08:24:11.425Z,3.20
2019-06-26T08:26:41.581Z,4.03
2019-06-26T08:29:12.756Z,7.25
2019-06-26T08:31:42.955Z,4.00
2019-06-26T08:34:13.224Z,3.33
2019-06-26T08:36:43.487Z,3.08
2019-06-26T08:39:15.433Z,3.00
2019-06-26T08:41:45.600Z,4.75
2019-06-26T08:44:15.933Z,4.70
2019-06-26T08:46:46.223Z,4.22
2019-06-26T08:49:25.531Z,3.40
2019-06-26T08:51:48.278Z,3.30
2019-06-26T08:54:18.408Z,3.55
2019-06-26T08:56:49.726Z,3.42
2019-06-26T08:59:20.794Z,3.62
2019-06-26T09:01:50.941Z,3.05
2019-06-26T09:04:21.089Z,3.50
2019-06-26T09:06:51.259Z,4.30
2019-06-26T09:09:25.078Z,3.22
2019-06-26T09:11:55.284Z,3.55
2019-06-26T09:14:25.492Z,4.12
2019-06-26T09:16:55.706Z,3.90
2019-06-26T09:19:25.883Z,3.90
2019-06-26T09:21:56.127Z,4.25
2019-06-26T09:24:26.327Z,3.87
2019-06-26T09:26:56.518Z,3.45
2019-06-26T09:29:27.257Z,4.40
2019-06-26T09:32:00.253Z,4.17
2019-06-26T09:34:30.540Z,4.37
2019-06-26T09:37:00.790Z,4.10
2019-06-26T09:39:31.040Z,5.28
2019-06-26T09:42:01.287Z,5.15
2019-06-26T09:44:31.471Z,4.75
2019-06-26T09:47:02.658Z,5.03
2019-06-26T09:49:33.985Z,5.40
2019-06-26T09:52:06.980Z,5.90
2019-06-26T09:54:40.294Z,5.15
2019-06-26T09:57:10.866Z,3.90
2019-06-26T09:59:42.665Z,4.50
2019-06-26T10:02:14.911Z,3.60
2019-06-26T10:04:45.104Z,3.20
2019-06-26T10:07:15.326Z,2.22
2019-06-26T10:09:45.729Z,3.10
2019-06-26T10:12:17.259Z,1.80
2019-06-26T10:14:48.203Z,2.58
2019-06-26T10:17:19.681Z,2.42
2019-06-26T10:19:49.879Z,1.85
2019-06-26T10:22:20.091Z,1.80
2019-06-26T10:24:50.298Z,1.22
2019-06-26T10:27:20.541Z,1.77
2019-06-26T10:29:50.881Z,2.22
2019-06-26T10:32:21.050Z,1.10
2019-06-26T10:34:51.275Z,1.62
2019-06-26T10:37:23.075Z,0.20
2019-06-26T10:39:53.258Z,0.40
2019-06-26T10:42:23.725Z,0.30
2019-06-26T10:44:53.865Z,0.40
2019-06-26T10:47:24.258Z,0.40
2019-06-26T10:49:54.448Z,0.20
2019-06-26T10:52:24.789Z,0.45
2019-06-26T10:54:55.988Z,0.72
2019-06-26T10:57:26.179Z,0.40
2019-06-26T10:59:58.828Z,0.80
2019-06-26T11:02:29.041Z,0.72
2019-06-26T11:04:59.237Z,0.90
2019-06-26T11:07:31.210Z,1.05
2019-06-26T11:10:07.237Z,1.15
2019-06-26T11:12:37.411Z,0.80
2019-06-26T11:15:08.038Z,0.50
2019-06-26T11:17:39.815Z,1.10
2019-06-26T11:20:11.851Z,1.15
2019-06-26T11:22:42.163Z,0.62
2019-06-26T11:25:12.360Z,0.20
2019-06-26T11:27:42.554Z,0.50
2019-06-26T11:30:13.346Z,0.50
2019-06-26T11:32:43.493Z,0.37
2019-06-26T11:35:13.804Z,0.80
2019-06-26T11:37:45.488Z,0.30
2019-06-26T11:40:20.062Z,0.30
2019-06-26T11:42:50.271Z,0.20
2019-06-26T11:45:20.640Z,0.30
2019-06-26T11:47:50.792Z,0.20
2019-06-26T11:50:22.386Z,0.20
2019-06-26T11:52:52.525Z,0.20
2019-06-26T11:55:23.252Z,0.50
2019-06-26T11:57:53.433Z,0.30
2019-06-26T12:00:27.280Z,0.40
2019-06-26T12:02:57.524Z,0.20
2019-06-26T12:05:30.182Z,0.72
2019-06-26T12:08:02.216Z,0.30
2019-06-26T12:10:32.872Z,0.40
2019-06-26T12:13:04.484Z,0.53
2019-06-26T12:15:34.776Z,0.42
2019-06-26T12:18:04.954Z,0.65
2019-06-26T12:20:35.135Z,0.40
2019-06-26T12:23:06.378Z,0.45
2019-06-26T12:25:36.578Z,0.33
2019-06-26T12:28:06.904Z,0.20
2019-06-26T12:30:37.095Z,0.28
2019-06-26T12:33:07.341Z,0.40
2019-06-26T12:35:37.671Z,0.60
2019-06-26T12:38:07.886Z,0.62
2019-06-26T12:40:38.085Z,0.40
2019-06-26T12:43:08.332Z,0.20
2019-06-26T12:45:38.561Z,0.37
2019-06-26T12:48:09.029Z,0.80
2019-06-26T12:50:39.334Z,1.10
2019-06-26T12:53:09.478Z,1.05
2019-06-26T12:55:41.185Z,1.32
2019-06-26T12:58:13.977Z,0.78
2019-06-26T13:00:43.271Z,0.45
2019-06-26T13:03:14.724Z,1.00
2019-06-26T13:05:44.918Z,0.53
2019-06-26T13:08:15.061Z,0.50
2019-06-26T13:10:49.951Z,0.30
2019-06-26T13:13:18.101Z,0.40
2019-06-26T13:15:50.889Z,0.30
2019-06-26T13:18:21.234Z,0.62
2019-06-26T13:20:53.398Z,0.40
2019-06-26T13:23:25.432Z,0.40
2019-06-26T13:25:55.617Z,0.55
2019-06-26T13:28:26.879Z,0.20
2019-06-26T13:30:57.081Z,0.30
2019-06-26T13:33:27.432Z,0.20
2019-06-26T13:35:58.576Z,0.55
2019-06-26T13:38:28.830Z,0.28
2019-06-26T13:40:59.073Z,0.20
2019-06-26T13:43:29.401Z,0.20
2019-06-26T13:46:00.295Z,0.20
2019-06-26T13:48:30.501Z,0.15
2019-06-26T13:51:09.477Z,0.20
2019-06-26T13:53:32.831Z,0.10
2019-06-26T13:56:03.491Z,0.20
2019-06-26T13:58:33.708Z,0.30
2019-06-26T14:01:06.994Z,0.20
2019-06-26T14:03:37.194Z,0.20
2019-06-26T14:06:07.404Z,0.20
2019-06-26T14:08:37.564Z,0.15
2019-06-26T14:11:07.770Z,0.20
2019-06-26T14:13:41.695Z,0.20
2019-06-26T14:16:10.966Z,0.20
2019-06-26T14:18:42.850Z,0.20
2019-06-26T14:21:24.973Z,0.20
2019-06-26T14:23:44.977Z,0.20
2019-06-26T14:26:15.162Z,0.30
2019-06-26T14:28:48.297Z,0.45
2019-06-26T14:31:18.728Z,0.20
2019-06-26T14:33:49.112Z,0.40
2019-06-26T14:36:22.366Z,0.35
2019-06-26T14:38:51.207Z,0.23
2019-06-26T14:41:23.851Z,0.10
2019-06-26T14:43:54.075Z,0.30
2019-06-26T14:46:24.277Z,0.20
2019-06-26T14:48:54.483Z,0.20
2019-06-26T14:51:37.794Z,0.20
2019-06-26T14:53:56.628Z,0.20
2019-06-26T14:56:27.321Z,0.20
2019-06-26T14:58:59.717Z,0.23
2019-06-26T15:01:29.968Z,0.10
2019-06-26T15:04:00.169Z,0.20
2019-06-26T15:06:30.443Z,0.30
2019-06-26T15:09:01.145Z,0.30
2019-06-26T15:11:33.084Z,0.20
2019-06-26T15:14:06.385Z,0.20
2019-06-26T15:16:36.619Z,0.20
2019-06-26T15:19:06.899Z,0.20
2019-06-26T15:21:37.053Z,0.30
2019-06-26T15:24:08.525Z,0.30
2019-06-26T15:26:40.804Z,0.20
2019-06-26T15:29:11.124Z,0.20
2019-06-26T15:31:42.293Z,0.20
2019-06-26T15:34:12.564Z,0.23
2019-06-26T15:36:45.926Z,0.30
2019-06-26T15:39:16.203Z,0.20
2019-06-26T15:41:46.511Z,0.20
2019-06-26T15:44:17.594Z,0.30
2019-06-26T15:46:47.909Z,0.20
2019-06-26T15:49:18.122Z,0.30
2019-06-26T15:51:48.577Z,0.20
2019-06-26T15:54:20.336Z,0.20
2019-06-26T15:56:50.575Z,0.20
2019-06-26T15:59:20.810Z,0.23
2019-06-26T16:01:51.056Z,0.20
2019-06-26T16:04:21.453Z,0.20
2019-06-26T16:06:51.669Z,0.20
2019-06-26T16:09:22.834Z,0.20
2019-06-26T16:11:53.004Z,0.10
2019-06-26T16:14:24.441Z,0.20
2019-06-26T16:16:57.102Z,0.45
2019-06-26T16:19:27.410Z,0.20
2019-06-26T16:21:57.633Z,0.20
2019-06-26T16:24:30.958Z,0.40
2019-06-26T16:27:01.801Z,0.20
2019-06-26T16:29:32.108Z,0.20
2019-06-26T16:32:11.395Z,0.10
2019-06-26T16:34:44.385Z,0.10
2019-06-26T16:37:14.736Z,0.10
2019-06-26T16:39:45.012Z,0.10
2019-06-26T16:42:15.189Z,0.10
2019-06-26T16:44:45.425Z,0.10
2019-06-26T16:47:16.755Z,0.10
2019-06-26T16:49:47.046Z,0.95
2019-06-26T16:52:17.214Z,0.10
2019-06-26T16:54:47.557Z,0.10
2019-06-26T16:57:19.603Z,0.10
2019-06-26T16:59:49.814Z,0.10
2019-06-26T17:02:20.040Z,0.10
2019-06-26T17:04:50.324Z,0.10
2019-06-26T17:07:22.162Z,0.10
2019-06-26T17:09:52.359Z,0.10
2019-06-26T17:12:22.712Z,0.10
2019-06-26T17:14:53.089Z,0.10
2019-06-26T17:17:28.309Z,0.10
2019-06-26T17:20:00.009Z,0.10
2019-06-26T17:22:30.363Z,0.10
2019-06-26T17:25:00.696Z,0.15
2019-06-26T17:27:31.283Z,0.10
2019-06-26T17:30:01.631Z,0.10
2019-06-26T17:32:32.155Z,0.10
2019-06-26T17:35:04.127Z,0.10
2019-06-26T17:37:34.579Z,0.10
2019-06-26T17:40:05.209Z,0.10
2019-06-26T17:42:35.475Z,0.10
2019-06-26T17:45:06.821Z,0.00
2019-06-26T17:47:37.401Z,0.10
2019-06-26T17:50:07.884Z,0.10
2019-06-26T17:52:38.785Z,0.10
2019-06-26T17:55:09.466Z,0.10
2019-06-26T17:57:41.412Z,0.10
2019-06-26T18:00:13.125Z,0.55
2019-06-26T18:02:43.394Z,0.10
2019-06-26T18:05:13.667Z,0.10
2019-06-26T18:07:44.106Z,0.10
2019-06-26T18:10:14.735Z,0.10
2019-06-26T18:12:45.001Z,0.60
2019-06-26T18:15:15.345Z,0.10
2019-06-26T18:17:45.976Z,0.20
2019-06-26T18:20:17.921Z,0.20
2019-06-26T18:23:02.522Z,0.10
2019-06-26T18:25:21.527Z,0.10
2019-06-26T18:27:51.948Z,0.10
2019-06-26T18:30:23.024Z,0.10
2019-06-26T18:32:53.299Z,0.10
2019-06-26T18:35:23.527Z,0.10
2019-06-26T18:37:54.478Z,0.10
2019-06-26T18:40:26.363Z,0.90
2019-06-26T18:42:56.718Z,0.33
2019-06-26T18:45:26.915Z,0.40
2019-06-26T18:47:57.156Z,0.20
2019-06-26T18:50:27.505Z,0.20
2019-06-26T18:52:57.864Z,0.10
2019-06-26T18:55:28.126Z,0.30
2019-06-26T18:58:00.859Z,0.20
2019-06-26T19:00:31.331Z,0.68
2019-06-26T19:03:01.780Z,0.30
2019-06-26T19:05:32.108Z,0.25
2019-06-26T19:08:02.438Z,0.35
2019-06-26T19:10:32.961Z,0.95
2019-06-26T19:13:03.182Z,0.20
2019-06-26T19:15:33.662Z,1.62
2019-06-26T19:18:04.078Z,0.40
2019-06-26T19:20:35.373Z,0.37
2019-06-26T19:23:05.832Z,0.20
2019-06-26T19:25:36.050Z,0.30
2019-06-26T19:28:08.609Z,0.57
2019-06-26T19:30:39.136Z,0.62
2019-06-26T19:33:10.516Z,0.30
2019-06-26T19:35:40.721Z,0.30
2019-06-26T19:38:11.475Z,0.57
2019-06-26T19:40:42.394Z,0.20
2019-06-26T19:43:13.173Z,0.20
2019-06-26T19:45:47.097Z,0.62
2019-06-26T19:48:17.458Z,0.20
2019-06-26T19:50:47.766Z,0.45
2019-06-26T19:53:18.021Z,0.20
2019-06-26T19:55:50.428Z,0.40
2019-06-26T19:58:22.432Z,0.20
2019-06-26T20:00:52.773Z,0.30
2019-06-26T20:03:23.184Z,0.33
2019-06-26T20:05:53.516Z,0.20
2019-06-26T20:08:23.754Z,0.47
2019-06-26T20:10:56.452Z,0.30
2019-06-26T20:13:26.651Z,0.30
2019-06-26T20:15:57.344Z,0.30
2019-06-26T20:18:27.869Z,0.20
2019-06-26T20:20:58.376Z,0.53
2019-06-26T20:23:31.394Z,0.25
2019-06-26T20:26:02.396Z,0.20
2019-06-26T20:28:33.120Z,0.20
2019-06-26T20:31:04.749Z,0.28
2019-06-26T20:33:35.294Z,0.17
2019-06-26T20:36:06.993Z,0.95
2019-06-26T20:38:37.242Z,0.15
2019-06-26T20:41:07.538Z,0.10
2019-06-26T20:43:37.752Z,0.50
2019-06-26T20:46:07.993Z,0.10
2019-06-26T20:48:38.253Z,0.10
2019-06-26T20:51:08.507Z,0.10
2019-06-26T20:53:39.222Z,0.03
2019-06-26T20:56:09.540Z,0.08
2019-06-26T20:58:41.406Z,0.10
2019-06-26T21:01:12.759Z,0.10
2019-06-26T21:03:43.069Z,0.30
2019-06-26T21:06:16.061Z,0.10
2019-06-26T21:08:47.910Z,0.10
2019-06-26T21:11:18.273Z,0.10
2019-06-26T21:13:48.498Z,0.10
2019-06-26T21:16:18.862Z,0.05
2019-06-26T21:18:49.130Z,0.05
2019-06-26T21:21:19.516Z,0.10
2019-06-26T21:23:53.379Z,0.00
2019-06-26T21:26:23.627Z,0.10
2019-06-26T21:28:53.823Z,0.10
2019-06-26T21:31:24.024Z,0.10
2019-06-26T21:33:54.348Z,0.03
2019-06-26T21:36:24.546Z,0.10
2019-06-26T21:38:54.720Z,0.20
2019-06-26T21:41:24.971Z,0.10
2019-06-26T21:43:55.225Z,0.40
2019-06-26T21:46:25.495Z,0.10
2019-06-26T21:48:55.713Z,0.10
2019-06-26T21:51:26.993Z,0.10
2019-06-26T21:53:57.340Z,0.62
2019-06-26T21:56:45.166Z,0.68
2019-06-26T21:59:33.303Z,0.10
2019-06-26T22:02:23.724Z,0.10
2019-06-26T22:04:55.518Z,0.17
2019-06-26T22:07:44.875Z,0.10
2019-06-26T22:10:19.541Z,0.10
2019-06-26T22:12:49.886Z,0.17
2019-06-26T22:15:20.214Z,0.10
2019-06-26T22:17:50.704Z,0.10
2019-06-26T22:20:21.336Z,0.10
2019-06-26T22:22:51.670Z,0.10
2019-06-26T22:25:21.921Z,0.35
2019-06-26T22:27:52.063Z,0.10
2019-06-26T22:30:22.766Z,0.20
2019-06-26T22:32:52.962Z,0.93
2019-06-26T22:35:23.188Z,0.10
2019-06-26T22:37:53.411Z,0.53
2019-06-26T22:40:23.632Z,0.10
2019-06-26T22:42:53.857Z,0.10
2019-06-26T22:45:26.111Z,0.10
2019-06-26T22:47:56.333Z,0.10
2019-06-26T22:50:26.576Z,0.10
2019-06-26T22:52:56.744Z,0.10
2019-06-26T22:55:29.209Z,0.10
2019-06-26T22:57:59.280Z,0.10
2019-06-26T23:00:29.493Z,0.10
2019-06-26T23:02:59.761Z,0.10
2019-06-26T23:05:29.959Z,0.10
2019-06-26T23:08:00.309Z,0.10
2019-06-26T23:10:30.585Z,0.13
2019-06-26T23:13:00.873Z,0.10
2019-06-26T23:15:31.051Z,0.10
2019-06-26T23:18:01.444Z,0.10
2019-06-26T23:20:31.628Z,0.10
2019-06-26T23:23:01.809Z,0.10
2019-06-26T23:25:31.969Z,0.20
2019-06-26T23:28:02.169Z,0.10
2019-06-26T23:30:33.343Z,0.10
2019-06-26T23:33:05.176Z,0.15
2019-06-26T23:35:35.326Z,0.20
2019-06-26T23:38:06.574Z,0.10
2019-06-26T23:40:36.767Z,0.28
2019-06-26T23:43:07.125Z,0.30
2019-06-26T23:45:38.974Z,0.10
2019-06-26T23:48:09.313Z,0.10
2019-06-26T23:50:39.509Z,0.20
2019-06-26T23:53:10.547Z,0.30
2019-06-26T23:55:40.760Z,0.23
2019-06-26T23:58:10.965Z,0.30
